createdAt,value
2018-05-10T00:00:32.283Z,24.20
2018-05-10T00:03:00.394Z,24.10
2018-05-10T00:05:28.547Z,24.10
2018-05-10T00:07:56.722Z,24.10
2018-05-10T00:10:25.711Z,24.00
2018-05-10T00:12:53.863Z,24.00
2018-05-10T00:15:23.449Z,23.90
2018-05-10T00:17:51.578Z,23.90
2018-05-10T00:20:19.790Z,23.80
2018-05-10T00:22:48.671Z,23.70
2018-05-10T00:25:17.641Z,23.70
2018-05-10T00:27:46.685Z,23.60
2018-05-10T00:30:14.807Z,23.60
2018-05-10T00:32:43.684Z,23.50
2018-05-10T00:35:11.836Z,23.50
2018-05-10T00:37:40.040Z,23.40
2018-05-10T00:40:08.289Z,23.40
2018-05-10T00:42:36.659Z,23.30
2018-05-10T00:45:04.875Z,23.20
2018-05-10T00:47:33.032Z,23.20
2018-05-10T00:50:01.861Z,23.10
2018-05-10T00:52:30.773Z,23.00
2018-05-10T00:54:59.684Z,23.00
2018-05-10T00:57:27.815Z,22.90
2018-05-10T00:59:55.923Z,22.90
2018-05-10T01:02:24.039Z,22.90
2018-05-10T01:04:52.220Z,22.80
2018-05-10T01:07:20.335Z,22.80
2018-05-10T01:09:48.441Z,22.80
2018-05-10T01:12:16.575Z,22.70
2018-05-10T01:14:44.945Z,22.70
2018-05-10T01:17:13.135Z,22.60
2018-05-10T01:19:41.261Z,22.60
2018-05-10T01:22:09.373Z,22.60
2018-05-10T01:24:38.248Z,22.50
2018-05-10T01:27:06.382Z,22.50
2018-05-10T01:29:36.259Z,22.40
2018-05-10T01:32:04.364Z,22.40
2018-05-10T01:34:32.495Z,22.40
2018-05-10T01:37:00.618Z,22.30
2018-05-10T01:39:28.718Z,22.30
2018-05-10T01:41:56.827Z,22.20
2018-05-10T01:44:24.947Z,22.20
2018-05-10T01:46:53.048Z,22.20
2018-05-10T01:49:21.188Z,22.10
2018-05-10T01:51:49.295Z,22.10
2018-05-10T01:54:18.177Z,22.00
2018-05-10T01:56:46.280Z,22.00
2018-05-10T01:59:14.391Z,22.00
2018-05-10T02:01:43.291Z,21.90
2018-05-10T02:04:11.427Z,21.90
2018-05-10T02:06:39.672Z,21.90
2018-05-10T02:09:07.753Z,21.80
2018-05-10T02:11:35.941Z,21.80
2018-05-10T02:14:04.830Z,21.70
2018-05-10T02:16:32.955Z,21.70
2018-05-10T02:19:01.376Z,21.70
2018-05-10T02:21:29.596Z,21.60
2018-05-10T02:23:57.703Z,21.60
2018-05-10T02:26:25.816Z,21.50
2018-05-10T02:28:53.920Z,21.50
2018-05-10T02:31:22.048Z,21.40
2018-05-10T02:33:50.163Z,21.40
2018-05-10T02:36:18.279Z,21.40
2018-05-10T02:38:46.384Z,21.30
2018-05-10T02:41:14.495Z,21.30
2018-05-10T02:43:43.385Z,21.20
2018-05-10T02:46:12.258Z,21.10
2018-05-10T02:48:40.407Z,21.10
2018-05-10T02:51:08.511Z,21.10
2018-05-10T02:53:36.640Z,21.00
2018-05-10T02:56:04.743Z,21.00
2018-05-10T02:58:32.835Z,20.90
2018-05-10T03:01:00.948Z,20.90
2018-05-10T03:03:29.828Z,20.80
2018-05-10T03:05:58.710Z,20.70
2018-05-10T03:08:26.843Z,20.70
2018-05-10T03:10:54.970Z,20.70
2018-05-10T03:13:23.080Z,20.70
2018-05-10T03:15:51.238Z,20.60
2018-05-10T03:18:19.328Z,20.60
2018-05-10T03:20:48.109Z,20.50
2018-05-10T03:23:16.991Z,20.40
2018-05-10T03:25:45.101Z,20.40
2018-05-10T03:28:13.215Z,20.40
2018-05-10T03:30:41.333Z,20.40
2018-05-10T03:33:09.515Z,20.30
2018-05-10T03:35:37.517Z,20.30
2018-05-10T03:38:05.632Z,20.20
2018-05-10T03:40:33.827Z,20.20
2018-05-10T03:43:02.632Z,20.10
2018-05-10T03:45:32.169Z,20.10
2018-05-10T03:48:00.297Z,20.10
2018-05-10T03:50:28.417Z,20.10
2018-05-10T03:52:56.527Z,20.00
2018-05-10T03:55:25.355Z,20.00
2018-05-10T03:57:53.460Z,19.90
2018-05-10T04:00:21.567Z,19.90
2018-05-10T04:16:37.984Z,19.70
2018-05-10T04:19:06.840Z,19.60
2018-05-10T04:21:35.739Z,19.60
2018-05-10T04:24:03.856Z,19.60
2018-05-10T04:26:31.960Z,19.60
2018-05-10T04:29:00.086Z,19.60
2018-05-10T04:31:28.211Z,19.60
2018-05-10T04:33:56.316Z,19.60
2018-05-10T04:36:24.431Z,19.60
2018-05-10T04:38:53.306Z,19.60
2018-05-10T04:41:21.417Z,19.50
2018-05-10T04:43:49.545Z,19.60
2018-05-10T04:46:17.654Z,19.60
2018-05-10T04:48:45.820Z,19.60
2018-05-10T04:51:13.939Z,19.60
2018-05-10T04:53:42.237Z,19.70
2018-05-10T04:56:10.675Z,19.60
2018-05-10T04:58:40.341Z,19.70
2018-05-10T05:01:08.634Z,19.70
2018-05-10T05:03:36.725Z,19.70
2018-05-10T05:06:04.827Z,19.70
2018-05-10T05:08:33.689Z,19.70
2018-05-10T05:11:01.823Z,19.70
2018-05-10T05:13:29.922Z,19.80
2018-05-10T05:15:58.061Z,19.70
2018-05-10T05:18:26.166Z,19.80
2018-05-10T05:20:54.283Z,19.80
2018-05-10T05:23:22.391Z,19.80
2018-05-10T05:25:50.512Z,19.80
2018-05-10T05:28:18.634Z,19.80
2018-05-10T05:30:47.542Z,19.90
2018-05-10T05:33:15.655Z,19.80
2018-05-10T05:35:43.771Z,19.90
2018-05-10T05:38:11.912Z,19.90
2018-05-10T05:40:40.049Z,20.00
2018-05-10T05:43:08.180Z,20.00
2018-05-10T05:45:36.276Z,20.10
2018-05-10T05:48:04.466Z,20.10
2018-05-10T05:50:33.357Z,20.20
2018-05-10T05:53:02.239Z,20.30
2018-05-10T05:55:30.339Z,20.30
2018-05-10T05:57:58.812Z,20.30
2018-05-10T06:00:26.977Z,20.30
2018-05-10T06:02:55.135Z,20.40
2018-05-10T06:05:23.263Z,20.40
2018-05-10T06:07:51.356Z,20.30
2018-05-10T06:10:19.637Z,20.40
2018-05-10T06:12:47.758Z,20.40
2018-05-10T06:15:15.945Z,20.30
2018-05-10T06:17:44.064Z,20.30
2018-05-10T06:20:12.200Z,20.30
2018-05-10T06:22:41.080Z,20.30
2018-05-10T06:25:09.436Z,20.20
2018-05-10T06:27:37.331Z,20.20
2018-05-10T06:30:05.733Z,20.20
2018-05-10T06:32:34.271Z,20.10
2018-05-10T06:35:03.164Z,20.10
2018-05-10T06:37:31.283Z,20.10
2018-05-10T06:39:59.409Z,20.10
2018-05-10T06:42:27.562Z,20.10
2018-05-10T06:44:55.667Z,20.10
2018-05-10T06:47:23.779Z,20.10
2018-05-10T06:49:51.908Z,20.10
2018-05-10T06:52:20.028Z,20.10
2018-05-10T06:54:48.160Z,20.10
2018-05-10T06:57:17.021Z,20.10
2018-05-10T06:59:45.936Z,20.00
2018-05-10T07:02:14.933Z,20.10
2018-05-10T07:04:43.356Z,20.00
2018-05-10T07:07:11.453Z,20.10
2018-05-10T07:09:39.690Z,20.10
2018-05-10T07:12:07.730Z,20.10
2018-05-10T07:14:35.880Z,20.10
2018-05-10T07:17:04.036Z,20.10
2018-05-10T07:19:33.077Z,20.10
2018-05-10T07:22:01.258Z,20.10
2018-05-10T07:24:29.415Z,20.10
2018-05-10T07:27:01.593Z,20.10
2018-05-10T07:29:29.703Z,20.10
2018-05-10T07:31:58.705Z,20.10
2018-05-10T07:34:26.884Z,20.10
2018-05-10T07:36:55.139Z,20.10
2018-05-10T07:39:24.094Z,20.10
2018-05-10T07:41:52.358Z,20.10
2018-05-10T07:44:21.269Z,20.10
2018-05-10T07:46:50.384Z,20.10
2018-05-10T07:49:18.542Z,20.10
2018-05-10T07:51:46.649Z,20.10
2018-05-10T07:54:14.829Z,20.10
2018-05-10T07:56:43.759Z,20.10
2018-05-10T07:59:12.640Z,20.10
2018-05-10T08:01:40.768Z,20.10
2018-05-10T08:04:08.982Z,20.20
2018-05-10T08:06:37.981Z,20.20
2018-05-10T08:09:06.680Z,20.20
2018-05-10T08:11:35.606Z,20.20
2018-05-10T08:14:03.869Z,20.10
2018-05-10T08:16:32.097Z,20.20
2018-05-10T08:19:00.505Z,20.20
2018-05-10T08:21:30.892Z,20.20
2018-05-10T08:23:59.289Z,20.20
2018-05-10T08:26:27.405Z,20.20
2018-05-10T08:28:55.532Z,20.20
2018-05-10T08:31:23.643Z,20.20
2018-05-10T08:33:51.807Z,20.20
2018-05-10T08:36:20.465Z,20.20
2018-05-10T08:38:48.692Z,20.20
2018-05-10T08:41:16.858Z,20.20
2018-05-10T08:43:44.988Z,20.20
2018-05-10T08:46:14.354Z,20.20
2018-05-10T08:48:43.420Z,20.20
2018-05-10T08:51:11.529Z,20.20
2018-05-10T08:53:39.692Z,20.30
2018-05-10T08:56:08.125Z,20.30
2018-05-10T08:58:37.055Z,20.40
2018-05-10T09:01:06.158Z,20.30
2018-05-10T09:03:35.058Z,20.40
2018-05-10T09:06:03.339Z,20.50
2018-05-10T09:08:31.485Z,20.50
2018-05-10T09:11:00.344Z,20.60
2018-05-10T09:13:28.777Z,20.60
2018-05-10T09:15:57.019Z,20.60
2018-05-10T09:18:25.537Z,20.70
2018-05-10T09:20:53.695Z,20.70
2018-05-10T09:23:22.615Z,20.70
2018-05-10T09:25:50.857Z,20.70
2018-05-10T09:28:21.461Z,20.80
2018-05-10T09:30:53.171Z,20.80
2018-05-10T09:33:23.798Z,20.90
2018-05-10T09:35:52.037Z,21.00
2018-05-10T09:38:20.584Z,21.20
2018-05-10T09:40:49.298Z,21.30
2018-05-10T09:43:17.656Z,21.50
2018-05-10T09:45:45.918Z,21.70
2018-05-10T09:48:14.353Z,21.80
2018-05-10T09:50:43.036Z,22.00
2018-05-10T09:53:11.216Z,22.20
2018-05-10T09:55:39.677Z,22.40
2018-05-10T09:58:08.635Z,22.70
2018-05-10T10:00:36.849Z,22.70
2018-05-10T10:03:05.018Z,22.90
2018-05-10T10:05:33.252Z,23.00
2018-05-10T10:08:01.546Z,23.10
2018-05-10T10:10:29.711Z,23.20
2018-05-10T10:12:58.437Z,23.30
2018-05-10T10:15:27.489Z,23.60
2018-05-10T10:17:57.221Z,23.70
2018-05-10T10:20:25.343Z,23.70
2018-05-10T10:22:53.473Z,23.90
2018-05-10T10:25:21.654Z,24.00
2018-05-10T10:27:54.162Z,24.20
2018-05-10T10:33:14.556Z,24.70
2018-05-10T10:35:44.184Z,24.70
2018-05-10T10:38:12.782Z,24.90
2018-05-10T10:40:44.426Z,25.00
2018-05-10T10:43:13.397Z,25.20
2018-05-10T10:45:42.722Z,25.30
2018-05-10T10:48:11.863Z,25.40
2018-05-10T10:50:41.273Z,25.40
2018-05-10T10:53:10.417Z,25.50
2018-05-10T10:55:38.853Z,25.50
2018-05-10T10:58:07.348Z,25.60
2018-05-10T11:00:35.754Z,25.60
2018-05-10T11:03:04.307Z,25.70
2018-05-10T11:05:34.864Z,25.70
2018-05-10T11:08:03.050Z,25.80
2018-05-10T11:10:31.156Z,25.90
2018-05-10T11:13:00.588Z,26.00
2018-05-10T11:15:28.963Z,26.00
2018-05-10T11:17:57.277Z,26.10
2018-05-10T11:20:25.523Z,26.10
2018-05-10T11:22:53.703Z,26.20
2018-05-10T11:25:21.807Z,26.30
2018-05-10T11:27:50.729Z,26.40
2018-05-10T11:30:18.965Z,26.30
2018-05-10T11:32:47.075Z,26.40
2018-05-10T11:35:15.239Z,26.40
2018-05-10T11:37:43.369Z,26.40
2018-05-10T11:40:11.842Z,26.50
2018-05-10T11:42:40.008Z,26.50
2018-05-10T11:45:08.096Z,26.50
2018-05-10T11:47:36.309Z,26.50
2018-05-10T11:50:04.651Z,26.50
2018-05-10T11:52:32.756Z,26.50
2018-05-10T11:55:01.024Z,26.50
2018-05-10T11:57:29.123Z,26.40
2018-05-10T11:59:57.324Z,26.40
2018-05-10T12:02:26.264Z,26.40
2018-05-10T12:04:54.447Z,26.30
2018-05-10T12:07:22.869Z,26.30
2018-05-10T12:09:51.004Z,26.20
2018-05-10T12:12:20.249Z,26.10
2018-05-10T12:14:49.153Z,26.00
2018-05-10T12:17:17.344Z,26.00
2018-05-10T12:19:45.483Z,25.90
2018-05-10T12:22:13.636Z,25.80
2018-05-10T12:24:42.515Z,25.70
2018-05-10T12:27:11.612Z,25.60
2018-05-10T12:29:40.528Z,25.60
2018-05-10T12:32:08.732Z,25.50
2018-05-10T12:34:36.824Z,25.50
2018-05-10T12:37:05.038Z,25.40
2018-05-10T12:39:33.959Z,25.30
2018-05-10T12:42:02.239Z,25.30
2018-05-10T12:44:31.096Z,25.20
2018-05-10T12:46:59.332Z,25.10
2018-05-10T12:49:27.451Z,25.10
2018-05-10T12:51:56.487Z,25.00
2018-05-10T12:54:25.409Z,24.80
2018-05-10T12:56:53.607Z,24.80
2018-05-10T12:59:22.262Z,24.70
2018-05-10T13:01:50.667Z,24.70
2018-05-10T13:04:18.918Z,24.60
2018-05-10T13:06:47.110Z,24.50
2018-05-10T13:09:16.176Z,24.40
2018-05-10T13:11:44.360Z,24.40
2018-05-10T13:14:12.568Z,24.30
2018-05-10T13:16:40.749Z,24.30
2018-05-10T13:19:09.368Z,24.10
2018-05-10T13:21:37.890Z,24.10
2018-05-10T13:24:06.049Z,24.00
2018-05-10T13:26:34.172Z,24.00
2018-05-10T13:29:02.411Z,23.90
2018-05-10T13:31:31.034Z,23.90
2018-05-10T13:33:59.263Z,23.80
2018-05-10T13:36:27.408Z,23.80
2018-05-10T13:38:55.528Z,23.70
2018-05-10T13:41:23.667Z,23.70
2018-05-10T13:43:51.890Z,23.60
2018-05-10T13:46:20.973Z,23.60
2018-05-10T13:48:49.277Z,23.60
2018-05-10T13:51:17.478Z,23.60
2018-05-10T13:53:45.584Z,23.50
2018-05-10T13:56:13.744Z,23.50
2018-05-10T13:58:41.955Z,23.50
2018-05-10T14:01:10.088Z,23.40
2018-05-10T14:03:38.304Z,23.40
2018-05-10T14:06:06.539Z,23.40
2018-05-10T14:08:34.857Z,23.40
2018-05-10T14:11:03.122Z,23.30
2018-05-10T14:13:31.211Z,23.30
2018-05-10T14:15:59.323Z,23.30
2018-05-10T14:18:27.635Z,23.20
2018-05-10T14:20:55.972Z,23.20
2018-05-10T14:23:24.161Z,23.20
2018-05-10T14:25:52.305Z,23.20
2018-05-10T14:28:20.485Z,23.20
2018-05-10T14:30:48.640Z,23.10
2018-05-10T14:33:16.801Z,23.10
2018-05-10T14:35:45.737Z,23.10
2018-05-10T14:38:13.904Z,23.00
2018-05-10T14:40:56.210Z,23.00
2018-05-10T14:43:24.352Z,23.00
2018-05-10T14:45:52.485Z,23.00
2018-05-10T14:48:20.588Z,22.90
2018-05-10T14:50:48.704Z,22.90
2018-05-10T14:53:17.028Z,22.90
2018-05-10T14:55:45.221Z,22.80
2018-05-10T14:58:13.380Z,22.80
2018-05-10T15:00:41.510Z,22.80
2018-05-10T15:03:10.171Z,22.80
2018-05-10T15:05:38.295Z,22.80
2018-05-10T15:08:06.427Z,22.70
2018-05-10T15:10:34.524Z,22.70
2018-05-10T15:13:03.425Z,22.70
2018-05-10T15:15:31.641Z,22.70
2018-05-10T15:17:59.707Z,22.70
2018-05-10T15:20:27.841Z,22.70
2018-05-10T15:22:56.040Z,22.60
2018-05-10T15:25:24.923Z,22.60
2018-05-10T15:27:53.791Z,22.60
2018-05-10T15:30:21.897Z,22.60
2018-05-10T15:32:52.953Z,22.60
2018-05-10T15:35:21.095Z,22.60
2018-05-10T15:37:49.201Z,22.60
2018-05-10T15:40:17.389Z,22.60
2018-05-10T15:42:45.428Z,22.60
2018-05-10T15:45:13.534Z,22.60
2018-05-10T15:47:41.639Z,22.50
2018-05-10T15:50:09.755Z,22.50
2018-05-10T15:52:38.620Z,22.50
2018-05-10T15:55:06.799Z,22.50
2018-05-10T15:57:34.889Z,22.50
2018-05-10T16:00:03.175Z,22.50
2018-05-10T16:02:31.288Z,22.50
2018-05-10T16:05:00.240Z,22.40
2018-05-10T16:07:28.369Z,22.40
2018-05-10T16:09:59.110Z,22.40
2018-05-10T16:12:27.264Z,22.40
2018-05-10T16:14:56.160Z,22.40
2018-05-10T16:17:26.021Z,22.40
2018-05-10T16:19:54.267Z,22.30
2018-05-10T16:22:22.396Z,22.40
2018-05-10T16:24:50.504Z,22.30
2018-05-10T16:27:19.393Z,22.30
2018-05-10T16:29:47.496Z,22.30
2018-05-10T16:32:15.628Z,22.30
2018-05-10T16:34:43.759Z,22.30
2018-05-10T16:37:11.892Z,22.30
2018-05-10T16:39:39.997Z,22.20
2018-05-10T16:42:08.095Z,22.20
2018-05-10T16:44:36.220Z,22.20
2018-05-10T16:47:04.333Z,22.10
2018-05-10T16:49:32.467Z,22.10
2018-05-10T16:52:00.576Z,22.00
2018-05-10T16:54:29.467Z,21.90
2018-05-10T16:56:57.592Z,21.90
2018-05-10T16:59:25.712Z,21.90
2018-05-10T17:01:53.829Z,21.80
2018-05-10T17:04:21.932Z,21.80
2018-05-10T17:06:50.034Z,21.80
2018-05-10T17:09:18.147Z,21.70
2018-05-10T17:11:46.259Z,21.60
2018-05-10T17:14:14.363Z,21.60
2018-05-10T17:16:42.511Z,21.50
2018-05-10T17:19:10.605Z,21.40
2018-05-10T17:21:38.712Z,21.40
2018-05-10T17:24:06.838Z,21.30
2018-05-10T17:26:34.960Z,21.20
2018-05-10T17:29:03.836Z,21.10
2018-05-10T17:31:31.970Z,21.10
2018-05-10T17:34:00.412Z,21.10
2018-05-10T17:36:28.508Z,21.00
2018-05-10T17:38:56.678Z,20.90
2018-05-10T17:41:24.941Z,20.90
2018-05-10T17:43:53.144Z,20.80
2018-05-10T17:46:22.694Z,20.70
2018-05-10T17:48:51.655Z,20.70
2018-05-10T17:51:19.767Z,20.60
2018-05-10T17:53:47.880Z,20.60
2018-05-10T17:56:16.485Z,20.50
2018-05-10T17:58:45.372Z,20.40
2018-05-10T18:01:14.337Z,20.30
2018-05-10T18:03:42.423Z,20.30
2018-05-10T18:06:10.640Z,20.30
2018-05-10T18:08:39.707Z,20.10
2018-05-10T18:11:08.740Z,20.20
2018-05-10T18:13:36.891Z,20.10
2018-05-10T18:16:04.988Z,20.00
2018-05-10T18:18:33.877Z,20.00
2018-05-10T18:21:03.081Z,19.90
2018-05-10T18:23:32.014Z,19.90
2018-05-10T18:26:01.150Z,19.80
2018-05-10T18:28:29.544Z,19.80
2018-05-10T18:30:58.595Z,19.70
2018-05-10T18:33:26.896Z,19.70
2018-05-10T18:35:55.086Z,19.70
2018-05-10T18:38:23.239Z,19.60
2018-05-10T18:40:52.638Z,19.60
2018-05-10T18:43:21.004Z,19.60
2018-05-10T18:45:49.148Z,19.50
2018-05-10T18:48:18.699Z,19.40
2018-05-10T18:50:46.850Z,19.40
2018-05-10T18:53:16.666Z,19.30
2018-05-10T18:55:45.653Z,19.30
2018-05-10T18:58:13.768Z,19.30
2018-05-10T19:00:41.906Z,19.20
2018-05-10T19:03:10.044Z,19.20
2018-05-10T19:05:38.351Z,19.20
2018-05-10T19:08:06.631Z,19.10
2018-05-10T19:10:34.824Z,19.10
2018-05-10T19:13:04.781Z,19.00
2018-05-10T19:15:32.955Z,18.90
2018-05-10T19:18:01.744Z,18.90
2018-05-10T19:20:29.917Z,18.90
2018-05-10T19:22:58.876Z,18.80
2018-05-10T19:25:26.983Z,18.80
2018-05-10T19:27:55.080Z,18.80
2018-05-10T19:30:23.210Z,18.70
2018-05-10T19:32:52.235Z,18.70
2018-05-10T19:35:20.403Z,18.60
2018-05-10T19:37:48.528Z,18.60
2018-05-10T19:40:16.651Z,18.50
2018-05-10T19:42:45.880Z,18.40
2018-05-10T19:45:14.103Z,18.40
2018-05-10T19:47:42.219Z,18.40
2018-05-10T19:50:10.340Z,18.30
2018-05-10T19:52:38.438Z,18.30
2018-05-10T19:55:06.769Z,18.20
2018-05-10T19:57:34.901Z,18.20
2018-05-10T20:00:03.105Z,18.10
2018-05-10T20:02:32.048Z,18.10
2018-05-10T20:05:00.172Z,18.00
2018-05-10T20:07:29.055Z,17.90
2018-05-10T20:10:00.041Z,17.80
2018-05-10T20:12:28.576Z,17.90
2018-05-10T20:14:57.365Z,17.70
2018-05-10T20:17:25.485Z,17.70
2018-05-10T20:19:53.601Z,17.70
2018-05-10T20:22:21.720Z,17.60
2018-05-10T20:24:50.599Z,17.60
2018-05-10T20:27:18.759Z,17.50
2018-05-10T20:29:46.926Z,17.50
2018-05-10T20:32:15.086Z,17.40
2018-05-10T20:34:43.135Z,17.40
2018-05-10T20:37:11.267Z,17.30
2018-05-10T20:39:39.733Z,17.30
2018-05-10T20:42:07.875Z,17.30
2018-05-10T20:44:36.790Z,17.10
2018-05-10T20:47:05.624Z,17.10
2018-05-10T20:49:33.746Z,17.10
2018-05-10T20:52:01.880Z,17.10
2018-05-10T20:54:29.968Z,17.00
2018-05-10T20:56:58.113Z,17.00
2018-05-10T20:59:26.233Z,16.90
2018-05-10T21:01:55.210Z,16.80
2018-05-10T21:04:24.036Z,16.80
2018-05-10T21:06:52.898Z,16.80
2018-05-10T21:09:21.891Z,16.70
2018-05-10T21:11:50.049Z,16.70
2018-05-10T21:14:18.156Z,16.70
2018-05-10T21:16:47.037Z,16.60
2018-05-10T21:19:15.277Z,16.60
2018-05-10T21:21:43.447Z,16.60
2018-05-10T21:24:11.576Z,16.50
2018-05-10T21:26:39.687Z,16.50
2018-05-10T21:29:07.798Z,16.40
2018-05-10T21:31:35.904Z,16.40
2018-05-10T21:34:04.011Z,16.40
2018-05-10T21:36:32.896Z,16.20
2018-05-10T21:39:01.812Z,16.20
2018-05-10T21:41:29.936Z,16.20
2018-05-10T21:43:58.071Z,16.20
2018-05-10T21:46:26.174Z,16.20
2018-05-10T21:48:54.285Z,16.10
2018-05-10T21:51:22.399Z,16.10
2018-05-10T21:53:50.534Z,16.10
2018-05-10T21:56:18.623Z,16.00
2018-05-10T21:58:46.716Z,16.00
2018-05-10T22:01:14.824Z,15.90
2018-05-10T22:03:43.585Z,15.90
2018-05-10T22:06:11.719Z,15.90
2018-05-10T22:08:41.391Z,15.80
2018-05-10T22:11:09.470Z,15.80
2018-05-10T22:13:37.589Z,15.80
2018-05-10T22:16:05.707Z,15.70
2018-05-10T22:18:33.889Z,15.70
2018-05-10T22:21:01.951Z,15.70
2018-05-10T22:23:30.096Z,15.60
2018-05-10T22:25:58.222Z,15.60
2018-05-10T22:28:27.131Z,15.60
2018-05-10T22:30:55.241Z,15.50
2018-05-10T22:33:23.369Z,15.50
2018-05-10T22:35:51.500Z,15.50
2018-05-10T22:38:19.614Z,15.50
2018-05-10T22:40:47.940Z,15.40
2018-05-10T22:43:16.038Z,15.40
2018-05-10T22:45:44.159Z,15.40
2018-05-10T22:48:12.296Z,15.40
2018-05-10T22:50:41.130Z,15.30
2018-05-10T22:53:09.251Z,15.30
2018-05-10T22:55:37.371Z,15.30
2018-05-10T22:58:05.498Z,15.30
2018-05-10T23:03:12.235Z,15.20
2018-05-10T23:05:41.136Z,15.20
2018-05-10T23:08:10.033Z,15.10
2018-05-10T23:10:38.899Z,15.10
2018-05-10T23:13:07.027Z,15.10
2018-05-10T23:15:35.133Z,15.10
2018-05-10T23:18:03.215Z,15.10
2018-05-10T23:20:31.343Z,15.10
2018-05-10T23:22:59.487Z,15.00
2018-05-10T23:25:27.657Z,15.00
2018-05-10T23:27:55.882Z,15.00
2018-05-10T23:30:24.117Z,14.90
2018-05-10T23:32:52.340Z,14.90
2018-05-10T23:35:20.479Z,14.90
2018-05-10T23:37:48.620Z,14.90
2018-05-10T23:40:18.281Z,14.80
2018-05-10T23:42:47.154Z,14.80
2018-05-10T23:45:15.279Z,14.80
2018-05-10T23:47:43.382Z,14.80
2018-05-10T23:50:11.536Z,14.80
2018-05-10T23:52:39.668Z,14.80
2018-05-10T23:55:07.786Z,14.70
2018-05-10T23:57:35.915Z,14.70
